createdAt,value
2017-10-31T00:00:58.819Z,94.60
2017-10-31T00:03:27.184Z,94.30
2017-10-31T00:05:55.665Z,93.20
2017-10-31T00:08:24.059Z,93.80
2017-10-31T00:10:52.402Z,93.50
2017-10-31T00:13:21.496Z,95.20
2017-10-31T00:15:49.829Z,95.20
2017-10-31T00:18:18.160Z,95.70
2017-10-31T00:20:47.451Z,95.60
2017-10-31T00:23:16.517Z,98.10
2017-10-31T00:25:44.835Z,97.90
2017-10-31T00:28:13.226Z,95.70
2017-10-31T00:30:41.529Z,95.40
2017-10-31T00:33:09.807Z,95.20
2017-10-31T00:35:38.141Z,94.70
2017-10-31T00:38:06.536Z,94.90
2017-10-31T00:40:34.899Z,95.10
2017-10-31T00:43:04.527Z,95.70
2017-10-31T00:45:33.159Z,95.70
2017-10-31T00:48:01.610Z,97.00
2017-10-31T00:50:30.975Z,98.50
2017-10-31T00:53:01.008Z,98.80
2017-10-31T00:55:29.583Z,98.60
2017-10-31T00:57:58.674Z,97.20
2017-10-31T01:00:27.064Z,97.20
2017-10-31T01:02:55.406Z,96.00
2017-10-31T01:05:23.748Z,96.80
2017-10-31T01:07:56.492Z,97.80
2017-10-31T01:10:24.847Z,99.90
2017-10-31T01:12:53.907Z,94.90
2017-10-31T01:15:22.246Z,94.90
2017-10-31T01:17:50.657Z,95.30
2017-10-31T01:20:18.941Z,95.20
2017-10-31T01:22:47.260Z,95.30
2017-10-31T01:25:15.563Z,95.50
2017-10-31T01:27:43.908Z,95.80
2017-10-31T01:30:12.235Z,95.20
2017-10-31T01:32:40.579Z,95.60
2017-10-31T01:35:09.689Z,96.90
2017-10-31T01:37:38.047Z,96.90
2017-10-31T01:40:07.127Z,97.80
2017-10-31T01:42:35.456Z,97.70
2017-10-31T01:45:03.867Z,96.90
2017-10-31T01:47:32.296Z,97.50
2017-10-31T01:50:00.643Z,97.70
2017-10-31T01:52:29.815Z,99.20
2017-10-31T01:55:01.124Z,98.70
2017-10-31T01:57:29.520Z,99.90
2017-10-31T01:59:57.864Z,99.90
2017-10-31T02:02:26.179Z,99.70
2017-10-31T02:04:55.331Z,99.40
2017-10-31T02:07:23.713Z,99.40
2017-10-31T02:09:52.060Z,99.10
2017-10-31T02:12:20.380Z,98.40
2017-10-31T02:14:49.605Z,98.30
2017-10-31T02:17:17.927Z,97.70
2017-10-31T02:19:46.220Z,98.10
2017-10-31T02:22:14.563Z,98.20
2017-10-31T02:24:42.860Z,97.80
2017-10-31T02:27:11.200Z,99.30
2017-10-31T02:29:39.498Z,99.30
2017-10-31T02:32:07.803Z,99.10
2017-10-31T02:34:36.137Z,99.60
2017-10-31T02:37:04.416Z,99.90
2017-10-31T02:39:32.696Z,99.90
2017-10-31T02:42:01.051Z,99.90
2017-10-31T02:44:29.415Z,99.90
2017-10-31T02:47:12.369Z,99.90
2017-10-31T02:49:40.723Z,99.70
2017-10-31T02:52:09.057Z,99.50
2017-10-31T02:54:37.377Z,99.20
2017-10-31T02:57:06.482Z,99.20
2017-10-31T02:59:34.868Z,99.20
2017-10-31T03:02:03.247Z,99.50
2017-10-31T03:04:32.358Z,99.90
2017-10-31T03:07:00.780Z,99.90
2017-10-31T03:09:29.100Z,99.90
2017-10-31T03:11:57.416Z,99.90
2017-10-31T03:14:25.841Z,99.90
2017-10-31T03:16:54.252Z,99.90
2017-10-31T03:19:22.574Z,99.90
2017-10-31T03:21:50.959Z,99.90
2017-10-31T03:24:19.269Z,99.90
2017-10-31T03:26:47.579Z,99.90
2017-10-31T03:29:15.894Z,99.90
2017-10-31T03:31:44.224Z,99.90
2017-10-31T03:34:13.313Z,99.40
2017-10-31T03:36:41.691Z,98.60
2017-10-31T03:39:10.003Z,99.40
2017-10-31T03:41:38.330Z,99.20
2017-10-31T03:44:06.829Z,99.30
2017-10-31T03:46:35.951Z,99.90
2017-10-31T03:49:05.185Z,99.90
2017-10-31T03:51:33.485Z,99.90
2017-10-31T03:54:01.801Z,99.90
2017-10-31T03:56:30.963Z,99.80
2017-10-31T03:58:59.301Z,99.80
2017-10-31T04:01:27.662Z,99.90
2017-10-31T04:03:56.015Z,99.90
2017-10-31T04:06:24.448Z,99.90
2017-10-31T04:08:52.876Z,99.90
2017-10-31T04:11:21.210Z,99.90
2017-10-31T04:13:49.528Z,99.90
2017-10-31T04:16:17.815Z,99.90
2017-10-31T04:18:46.105Z,99.90
2017-10-31T04:21:14.657Z,99.90
2017-10-31T04:23:43.740Z,99.90
2017-10-31T04:26:12.128Z,99.90
2017-10-31T04:28:40.475Z,99.90
2017-10-31T04:31:09.572Z,99.90
2017-10-31T04:33:38.159Z,99.90
2017-10-31T04:36:06.507Z,99.90
2017-10-31T04:38:34.823Z,99.90
2017-10-31T04:46:03.946Z,99.90
2017-10-31T04:48:32.285Z,99.90
2017-10-31T04:51:00.560Z,99.90
2017-10-31T04:53:28.892Z,99.90
2017-10-31T04:56:07.607Z,99.90
2017-10-31T04:58:35.943Z,99.90
2017-10-31T05:01:05.104Z,99.90
2017-10-31T05:03:34.178Z,99.90
2017-10-31T05:06:02.543Z,99.90
2017-10-31T05:08:30.860Z,99.90
2017-10-31T05:10:59.182Z,99.90
2017-10-31T05:13:27.557Z,99.90
2017-10-31T05:15:55.872Z,99.90
2017-10-31T05:18:24.192Z,99.90
2017-10-31T05:20:52.517Z,99.90
2017-10-31T05:23:20.808Z,99.90
2017-10-31T05:25:49.187Z,99.90
2017-10-31T05:28:17.503Z,99.90
2017-10-31T05:30:45.838Z,99.90
2017-10-31T05:33:14.904Z,99.90
2017-10-31T05:35:43.218Z,99.90
2017-10-31T05:38:11.598Z,99.90
2017-10-31T05:40:39.959Z,99.90
2017-10-31T05:43:08.293Z,99.90
2017-10-31T05:45:36.660Z,99.90
2017-10-31T05:48:04.972Z,99.90
2017-10-31T05:50:34.044Z,99.90
2017-10-31T05:53:02.382Z,99.90
2017-10-31T05:55:30.679Z,99.90
2017-10-31T05:57:58.967Z,99.90
2017-10-31T06:00:28.070Z,99.90
2017-10-31T06:02:56.446Z,99.90
2017-10-31T06:05:25.719Z,99.90
2017-10-31T06:07:54.139Z,99.90
2017-10-31T06:10:23.223Z,99.90
2017-10-31T06:12:51.582Z,99.90
2017-10-31T06:15:20.678Z,99.90
2017-10-31T06:17:48.969Z,99.90
2017-10-31T06:20:17.315Z,99.90
2017-10-31T06:22:51.009Z,99.90
2017-10-31T06:25:24.763Z,99.90
2017-10-31T06:27:59.511Z,99.90
2017-10-31T06:30:34.120Z,99.90
2017-10-31T06:33:02.431Z,99.90
2017-10-31T06:35:30.750Z,99.90
2017-10-31T06:37:59.059Z,99.90
2017-10-31T06:40:27.358Z,99.90
2017-10-31T06:42:55.675Z,99.90
2017-10-31T06:45:24.768Z,99.90
2017-10-31T06:47:53.967Z,99.90
2017-10-31T06:50:22.280Z,99.90
2017-10-31T06:52:50.559Z,99.90
2017-10-31T06:55:18.876Z,99.90
2017-10-31T06:57:49.115Z,99.90
2017-10-31T07:00:17.463Z,99.90
2017-10-31T07:02:45.755Z,99.90
2017-10-31T07:05:14.060Z,99.90
2017-10-31T07:07:42.450Z,99.90
2017-10-31T07:10:10.729Z,99.90
2017-10-31T07:12:39.023Z,99.90
2017-10-31T07:15:07.334Z,99.90
2017-10-31T07:17:35.616Z,99.90
2017-10-31T07:20:04.695Z,99.90
2017-10-31T07:22:32.986Z,99.90
2017-10-31T07:25:01.330Z,99.90
2017-10-31T07:27:30.393Z,99.90
2017-10-31T07:29:59.031Z,99.90
2017-10-31T07:32:27.372Z,99.90
2017-10-31T07:34:55.716Z,99.90
2017-10-31T07:37:24.026Z,99.90
2017-10-31T07:39:52.546Z,99.90
2017-10-31T07:42:31.071Z,99.90
2017-10-31T07:44:59.396Z,99.90
2017-10-31T07:47:27.756Z,99.90
2017-10-31T07:49:56.159Z,99.90
2017-10-31T07:52:24.434Z,99.90
2017-10-31T07:54:54.747Z,99.90
2017-10-31T07:57:23.038Z,99.90
2017-10-31T07:59:51.398Z,99.90
2017-10-31T08:02:19.696Z,99.90
2017-10-31T08:04:48.016Z,99.90
2017-10-31T08:07:16.355Z,99.90
2017-10-31T08:09:45.024Z,99.90
2017-10-31T08:12:13.336Z,99.90
2017-10-31T08:14:41.699Z,98.70
2017-10-31T08:17:10.147Z,99.90
2017-10-31T08:19:43.123Z,98.50
2017-10-31T08:22:11.448Z,97.20
2017-10-31T08:24:39.780Z,99.80
2017-10-31T08:27:08.114Z,99.10
2017-10-31T08:29:36.479Z,99.90
2017-10-31T08:32:05.144Z,99.90
2017-10-31T08:34:34.656Z,95.30
2017-10-31T08:37:02.937Z,91.00
2017-10-31T08:39:32.004Z,88.20
2017-10-31T08:42:01.140Z,86.50
2017-10-31T08:44:29.534Z,87.00
2017-10-31T08:47:05.023Z,85.40
2017-10-31T08:49:33.413Z,88.00
2017-10-31T08:52:02.867Z,88.40
2017-10-31T08:54:31.253Z,88.60
2017-10-31T08:56:59.590Z,90.50
2017-10-31T08:59:27.924Z,91.10
2017-10-31T09:01:56.211Z,90.20
2017-10-31T09:04:24.522Z,90.00
2017-10-31T09:06:52.895Z,87.50
2017-10-31T09:09:21.196Z,88.60
2017-10-31T09:11:49.554Z,87.10
2017-10-31T09:14:17.977Z,89.00
2017-10-31T09:16:49.784Z,88.60
2017-10-31T09:19:18.385Z,88.20
2017-10-31T09:21:46.719Z,88.10
2017-10-31T09:24:15.786Z,87.00
2017-10-31T09:26:44.141Z,87.00
2017-10-31T09:29:12.468Z,87.40
2017-10-31T09:31:40.812Z,86.00
2017-10-31T09:34:09.899Z,83.20
2017-10-31T09:36:42.924Z,83.10
2017-10-31T09:39:11.242Z,83.10
2017-10-31T09:41:39.536Z,83.50
2017-10-31T09:44:07.856Z,85.10
2017-10-31T09:46:36.147Z,84.30
2017-10-31T09:49:04.423Z,83.40
2017-10-31T09:51:32.735Z,83.40
2017-10-31T09:54:01.030Z,82.10
2017-10-31T09:56:29.394Z,84.60
2017-10-31T09:58:58.485Z,83.60
2017-10-31T10:01:26.786Z,83.60
2017-10-31T10:03:55.100Z,81.60
2017-10-31T10:06:23.372Z,80.80
2017-10-31T10:08:51.729Z,79.80
2017-10-31T10:11:20.774Z,78.90
2017-10-31T10:13:49.084Z,77.90
2017-10-31T10:16:17.364Z,75.00
2017-10-31T10:18:45.722Z,75.30
2017-10-31T10:21:14.089Z,72.70
2017-10-31T10:23:42.502Z,73.60
2017-10-31T10:26:10.785Z,71.30
2017-10-31T10:28:39.077Z,70.30
2017-10-31T10:31:07.392Z,72.90
2017-10-31T10:33:35.705Z,72.50
2017-10-31T10:36:03.987Z,73.30
2017-10-31T10:38:33.036Z,71.90
2017-10-31T10:41:01.355Z,71.90
2017-10-31T10:43:31.588Z,72.30
2017-10-31T10:45:59.916Z,69.40
2017-10-31T10:48:28.191Z,69.20
2017-10-31T10:50:56.480Z,69.70
2017-10-31T10:53:24.786Z,69.10
2017-10-31T10:55:53.083Z,68.00
2017-10-31T10:58:21.362Z,68.80
2017-10-31T11:00:49.711Z,67.50
2017-10-31T11:03:20.837Z,68.00
2017-10-31T11:05:49.919Z,70.50
2017-10-31T11:08:18.304Z,70.50
2017-10-31T11:10:47.577Z,70.30
2017-10-31T11:13:16.676Z,72.30
2017-10-31T11:15:44.978Z,72.10
2017-10-31T11:18:13.262Z,69.60
2017-10-31T11:20:41.557Z,69.50
2017-10-31T11:23:09.835Z,70.10
2017-10-31T11:25:38.207Z,69.10
2017-10-31T11:28:06.488Z,68.60
2017-10-31T11:30:34.786Z,68.20
2017-10-31T11:33:03.119Z,67.90
2017-10-31T11:35:32.205Z,66.50
2017-10-31T11:38:00.485Z,66.50
2017-10-31T11:40:28.791Z,65.40
2017-10-31T11:42:57.090Z,66.20
2017-10-31T11:45:25.391Z,65.40
2017-10-31T11:47:53.704Z,66.20
2017-10-31T11:50:22.034Z,64.60
2017-10-31T11:52:50.407Z,63.60
2017-10-31T11:55:18.714Z,61.40
2017-10-31T11:57:47.036Z,60.90
2017-10-31T12:00:15.319Z,59.90
2017-10-31T12:02:43.607Z,60.90
2017-10-31T12:05:12.044Z,59.90
2017-10-31T12:07:40.386Z,58.10
2017-10-31T12:10:09.477Z,56.50
2017-10-31T12:12:37.775Z,56.40
2017-10-31T12:15:06.148Z,56.00
2017-10-31T12:17:34.435Z,54.40
2017-10-31T12:20:02.748Z,55.80
2017-10-31T12:22:32.206Z,54.20
2017-10-31T12:25:00.491Z,54.60
2017-10-31T12:27:29.806Z,55.10
2017-10-31T12:29:58.101Z,55.60
2017-10-31T12:32:26.459Z,53.70
2017-10-31T12:34:55.542Z,51.50
2017-10-31T12:37:23.872Z,51.50
2017-10-31T12:39:52.941Z,52.70
2017-10-31T12:42:21.333Z,52.60
2017-10-31T12:44:49.611Z,53.20
2017-10-31T12:47:17.903Z,53.40
2017-10-31T12:49:46.984Z,54.40
2017-10-31T12:52:15.299Z,54.40
2017-10-31T12:54:43.585Z,53.60
2017-10-31T12:57:11.916Z,53.90
2017-10-31T12:59:40.967Z,54.50
2017-10-31T13:02:09.271Z,54.40
2017-10-31T13:04:37.574Z,54.90
2017-10-31T13:07:05.906Z,54.10
2017-10-31T13:09:34.193Z,54.60
2017-10-31T13:12:02.500Z,54.90
2017-10-31T13:14:30.806Z,53.20
2017-10-31T13:16:59.091Z,53.40
2017-10-31T13:19:27.414Z,53.60
2017-10-31T13:21:55.734Z,53.50
2017-10-31T13:24:24.032Z,54.60
2017-10-31T13:26:52.388Z,55.40
2017-10-31T13:29:21.056Z,55.30
2017-10-31T13:32:06.701Z,56.00
2017-10-31T13:34:35.333Z,54.40
2017-10-31T13:37:03.986Z,54.20
2017-10-31T13:39:32.676Z,53.60
2017-10-31T13:42:01.332Z,53.30
2017-10-31T13:44:32.125Z,53.50
2017-10-31T13:47:00.540Z,53.70
2017-10-31T13:49:29.194Z,53.60
2017-10-31T13:51:58.656Z,52.90
2017-10-31T13:54:26.970Z,52.80
2017-10-31T13:56:55.266Z,53.90
2017-10-31T13:59:23.619Z,55.00
2017-10-31T14:01:52.316Z,54.20
2017-10-31T14:04:20.990Z,54.30
2017-10-31T14:06:49.775Z,54.30
2017-10-31T14:09:19.205Z,54.20
2017-10-31T14:11:48.020Z,54.20
2017-10-31T14:14:17.282Z,54.90
2017-10-31T14:16:45.600Z,54.70
2017-10-31T14:19:14.519Z,54.40
2017-10-31T14:21:43.182Z,54.70
2017-10-31T14:24:11.510Z,54.80
2017-10-31T14:26:39.812Z,54.10
2017-10-31T14:29:08.127Z,54.40
2017-10-31T14:31:36.507Z,53.60
2017-10-31T14:34:04.792Z,54.20
2017-10-31T14:36:34.046Z,53.80
2017-10-31T14:39:02.346Z,54.00
2017-10-31T14:41:30.639Z,53.60
2017-10-31T14:43:59.331Z,54.10
2017-10-31T14:46:27.629Z,53.50
2017-10-31T14:48:55.983Z,53.60
2017-10-31T14:51:25.318Z,53.50
2017-10-31T14:53:53.639Z,53.10
2017-10-31T14:56:22.032Z,53.50
2017-10-31T14:58:50.396Z,53.50
2017-10-31T15:01:18.771Z,53.60
2017-10-31T15:03:47.149Z,52.80
2017-10-31T15:06:16.411Z,52.90
2017-10-31T15:08:45.675Z,52.90
2017-10-31T15:11:14.012Z,52.70
2017-10-31T15:13:42.324Z,52.80
2017-10-31T15:16:10.624Z,53.10
2017-10-31T15:18:38.999Z,53.30
2017-10-31T15:21:07.360Z,53.40
2017-10-31T15:23:35.644Z,53.90
2017-10-31T15:26:03.948Z,53.90
2017-10-31T15:28:32.240Z,54.70
2017-10-31T15:31:01.324Z,53.90
2017-10-31T15:33:29.640Z,53.80
2017-10-31T15:35:57.944Z,53.90
2017-10-31T15:38:27.035Z,54.20
2017-10-31T15:40:55.352Z,54.10
2017-10-31T15:43:23.664Z,54.40
2017-10-31T15:45:51.967Z,53.80
2017-10-31T15:48:20.267Z,54.70
2017-10-31T15:50:48.606Z,55.20
2017-10-31T15:53:16.905Z,53.60
2017-10-31T15:55:45.239Z,58.00
2017-10-31T15:58:14.613Z,55.30
2017-10-31T16:00:56.286Z,55.00
2017-10-31T16:03:24.648Z,54.80
2017-10-31T16:06:00.786Z,54.60
2017-10-31T16:08:29.144Z,55.00
2017-10-31T16:10:57.518Z,56.30
2017-10-31T16:13:25.880Z,55.30
2017-10-31T16:15:54.187Z,56.30
2017-10-31T16:18:22.467Z,55.50
2017-10-31T16:20:50.755Z,55.70
2017-10-31T16:23:19.080Z,56.60
2017-10-31T16:25:47.400Z,57.30
2017-10-31T16:28:15.731Z,56.20
2017-10-31T16:30:44.033Z,56.90
2017-10-31T16:33:17.224Z,56.20
2017-10-31T16:35:45.620Z,56.30
2017-10-31T16:38:13.909Z,55.90
2017-10-31T16:40:42.235Z,56.20
2017-10-31T16:43:10.555Z,56.40
2017-10-31T16:45:38.854Z,57.00
2017-10-31T16:48:07.172Z,57.20
2017-10-31T16:50:35.510Z,57.20
2017-10-31T16:53:03.849Z,58.80
2017-10-31T16:55:32.140Z,57.40
2017-10-31T16:58:00.442Z,57.60
2017-10-31T17:00:28.754Z,58.20
2017-10-31T17:02:57.104Z,57.00
2017-10-31T17:05:26.160Z,56.70
2017-10-31T17:07:54.455Z,56.70
2017-10-31T17:10:22.855Z,57.20
2017-10-31T17:12:51.136Z,56.10
2017-10-31T17:15:19.431Z,56.00
2017-10-31T17:17:48.584Z,55.60
2017-10-31T17:20:16.898Z,55.50
2017-10-31T17:22:45.305Z,55.70
2017-10-31T17:25:13.643Z,55.70
2017-10-31T17:27:42.824Z,56.70
2017-10-31T17:30:11.120Z,56.60
2017-10-31T17:32:39.399Z,57.00
2017-10-31T17:35:08.492Z,57.20
2017-10-31T17:37:36.795Z,57.00
2017-10-31T17:40:05.867Z,57.00
2017-10-31T17:42:34.179Z,57.00
2017-10-31T17:45:02.496Z,56.80
2017-10-31T17:47:31.586Z,57.40
2017-10-31T17:49:59.906Z,57.40
2017-10-31T17:52:28.204Z,58.10
2017-10-31T17:54:56.491Z,57.40
2017-10-31T17:57:24.825Z,57.70
2017-10-31T17:59:53.126Z,57.60
2017-10-31T18:02:21.443Z,56.90
2017-10-31T18:04:49.793Z,57.50
2017-10-31T18:07:18.117Z,58.20
2017-10-31T18:09:46.480Z,57.60
2017-10-31T18:12:14.813Z,57.30
2017-10-31T18:14:43.110Z,57.10
2017-10-31T18:17:11.694Z,57.40
2017-10-31T18:19:40.147Z,57.70
2017-10-31T18:22:10.303Z,57.70
2017-10-31T18:24:38.634Z,57.70
2017-10-31T18:27:11.110Z,57.50
2017-10-31T18:29:39.503Z,57.60
2017-10-31T18:32:07.836Z,57.80
2017-10-31T18:34:37.951Z,57.60
2017-10-31T18:37:08.532Z,57.40
2017-10-31T18:39:37.756Z,57.90
2017-10-31T18:42:06.869Z,57.60
2017-10-31T18:44:35.277Z,57.60
2017-10-31T18:47:03.624Z,57.70
2017-10-31T18:49:31.913Z,57.80
2017-10-31T18:52:08.118Z,57.40
2017-10-31T18:54:36.444Z,57.40
2017-10-31T18:57:04.853Z,57.30
2017-10-31T18:59:33.232Z,57.00
2017-10-31T19:02:01.580Z,57.60
2017-10-31T19:04:30.672Z,58.30
2017-10-31T19:06:59.021Z,58.20
2017-10-31T19:09:27.787Z,58.20
2017-10-31T19:11:56.221Z,58.40
2017-10-31T19:14:25.523Z,58.40
2017-10-31T19:17:10.078Z,58.60
2017-10-31T19:19:38.428Z,58.80
2017-10-31T19:22:06.859Z,59.10
2017-10-31T19:24:40.628Z,58.90
2017-10-31T19:27:08.945Z,58.50
2017-10-31T19:29:44.559Z,59.40
2017-10-31T19:32:12.935Z,59.00
2017-10-31T19:34:42.449Z,59.10
2017-10-31T19:37:14.639Z,60.10
2017-10-31T19:39:43.989Z,60.90
2017-10-31T19:42:12.419Z,60.20
2017-10-31T19:44:40.838Z,60.70
2017-10-31T19:47:09.936Z,60.30
2017-10-31T19:49:40.122Z,60.00
2017-10-31T19:52:12.077Z,60.10
2017-10-31T19:54:40.493Z,60.40
2017-10-31T19:57:09.158Z,60.00
2017-10-31T19:59:37.528Z,60.60
2017-10-31T20:05:14.708Z,60.70
2017-10-31T20:07:43.130Z,61.30
2017-10-31T20:10:14.469Z,61.30
2017-10-31T20:12:44.715Z,61.10
2017-10-31T20:15:14.541Z,62.00
2017-10-31T20:17:42.901Z,61.20
2017-10-31T20:20:11.361Z,62.50
2017-10-31T20:22:39.764Z,61.90
2017-10-31T20:25:13.187Z,61.80
2017-10-31T20:27:41.616Z,62.00
2017-10-31T20:30:14.771Z,62.90
2017-10-31T20:32:49.211Z,61.40
2017-10-31T20:35:17.706Z,61.80
2017-10-31T20:37:46.029Z,62.40
2017-10-31T20:40:14.401Z,62.30
2017-10-31T20:42:44.617Z,62.30
2017-10-31T20:45:13.039Z,62.50
2017-10-31T20:57:13.783Z,62.60
2017-10-31T20:59:45.022Z,62.10
2017-10-31T21:02:15.427Z,60.60
2017-10-31T21:04:45.309Z,61.40
2017-10-31T21:07:13.804Z,61.30
2017-10-31T21:09:46.099Z,60.70
2017-10-31T21:12:14.413Z,61.20
2017-10-31T21:14:42.813Z,61.50
2017-10-31T21:17:11.310Z,62.00
2017-10-31T21:19:44.655Z,61.70
2017-10-31T21:22:15.081Z,62.00
2017-10-31T21:24:44.004Z,62.10
2017-10-31T21:27:14.979Z,61.90
2017-10-31T21:29:50.413Z,61.90
2017-10-31T21:32:25.282Z,62.00
2017-10-31T21:35:04.830Z,62.30
2017-10-31T21:37:33.254Z,62.60
2017-10-31T21:40:01.590Z,62.80
2017-10-31T21:42:29.982Z,62.60
2017-10-31T21:45:17.480Z,63.00
2017-10-31T21:47:45.901Z,62.80
2017-10-31T21:50:15.121Z,63.20
2017-10-31T21:52:43.496Z,62.90
2017-10-31T21:55:11.905Z,63.20
2017-10-31T21:57:40.984Z,63.70
2017-10-31T22:00:09.337Z,63.70
2017-10-31T22:02:37.683Z,63.80
2017-10-31T22:05:06.005Z,63.50
2017-10-31T22:07:34.415Z,63.50
2017-10-31T22:10:02.781Z,64.10
2017-10-31T22:12:33.199Z,64.40
2017-10-31T22:15:06.183Z,64.10
2017-10-31T22:17:34.643Z,64.20
2017-10-31T22:20:03.194Z,64.70
2017-10-31T22:22:31.546Z,66.10
2017-10-31T22:24:59.864Z,65.60
2017-10-31T22:27:28.229Z,65.00
2017-10-31T22:29:56.692Z,65.90
2017-10-31T22:32:25.083Z,65.20
2017-10-31T22:34:53.519Z,65.40
2017-10-31T22:37:21.902Z,66.00
2017-10-31T22:39:50.399Z,65.60
2017-10-31T22:42:18.764Z,65.50
2017-10-31T22:44:47.241Z,65.80
2017-10-31T22:47:15.663Z,66.40
2017-10-31T22:49:44.040Z,65.40
2017-10-31T22:54:58.088Z,65.60
2017-10-31T22:57:26.401Z,65.90
2017-10-31T22:59:54.761Z,65.60
2017-10-31T23:02:23.121Z,65.80
2017-10-31T23:04:51.489Z,66.30
2017-10-31T23:07:19.862Z,66.00
2017-10-31T23:09:48.229Z,66.30
2017-10-31T23:12:16.639Z,66.30
2017-10-31T23:14:44.993Z,66.10
2017-10-31T23:17:13.353Z,66.70
2017-10-31T23:19:41.687Z,67.10
2017-10-31T23:22:10.035Z,67.10
2017-10-31T23:24:38.434Z,67.50
2017-10-31T23:27:06.792Z,67.20
2017-10-31T23:29:35.193Z,67.90
2017-10-31T23:32:03.641Z,68.10
2017-10-31T23:34:32.221Z,67.90
2017-10-31T23:37:00.646Z,68.40
2017-10-31T23:39:29.230Z,69.10
2017-10-31T23:41:57.597Z,69.00
2017-10-31T23:44:26.033Z,68.90
2017-10-31T23:46:54.358Z,69.20
2017-10-31T23:49:22.709Z,68.90
2017-10-31T23:51:51.024Z,69.00
2017-10-31T23:54:19.324Z,68.40
2017-10-31T23:56:47.673Z,68.60
2017-10-31T23:59:16.106Z,68.60
